sensor_id;sensor_type;location;lat;lon;timestamp;P1;durP1;ratioP1;P2;durP2;ratioP2
12222;SDS011;6174;49.058;8.524;2023-04-29T06:01:53;2.63;;;2.43;;
12222;SDS011;6174;49.058;8.524;2023-04-29T06:04:20;2.50;;;2.30;;
12222;SDS011;6174;49.058;8.524;2023-04-29T06:06:47;2.43;;;2.20;;
12222;SDS011;6174;49.058;8.524;2023-04-29T06:09:14;3.83;;;2.40;;
12222;SDS011;6174;49.058;8.524;2023-04-29T06:11:41;2.97;;;2.50;;
12222;SDS011;6174;49.058;8.524;2023-04-29T06:14:08;2.57;;;2.30;;
12222;SDS011;6174;49.058;8.524;2023-04-29T06:16:35;2.50;;;2.30;;
12222;SDS011;6174;49.058;8.524;2023-04-29T06:19:03;2.40;;;2.30;;
12222;SDS011;6174;49.058;8.524;2023-04-29T06:21:30;2.43;;;2.23;;
12222;SDS011;6174;49.058;8.524;2023-04-29T06:23:57;2.50;;;2.30;;
12222;SDS011;6174;49.058;8.524;2023-04-29T06:26:23;3.03;;;2.60;;
12222;SDS011;6174;49.058;8.524;2023-04-29T06:28:50;3.80;;;2.33;;
12222;SDS011;6174;49.058;8.524;2023-04-29T06:31:18;2.60;;;2.40;;
12222;SDS011;6174;49.058;8.524;2023-04-29T06:33:44;3.53;;;2.73;;
12222;SDS011;6174;49.058;8.524;2023-04-29T06:36:13;3.03;;;2.80;;
12222;SDS011;6174;49.058;8.524;2023-04-29T06:38:39;2.80;;;2.60;;
12222;SDS011;6174;49.058;8.524;2023-04-29T06:41:06;2.93;;;2.73;;
12222;SDS011;6174;49.058;8.524;2023-04-29T06:43:33;3.00;;;2.70;;
12222;SDS011;6174;49.058;8.524;2023-04-29T06:46:00;3.23;;;2.93;;
12222;SDS011;6174;49.058;8.524;2023-04-29T06:48:26;2.90;;;2.70;;
12222;SDS011;6174;49.058;8.524;2023-04-29T06:50:54;2.97;;;2.70;;
12222;SDS011;6174;49.058;8.524;2023-04-29T06:53:23;3.53;;;3.00;;
12222;SDS011;6174;49.058;8.524;2023-04-29T06:55:49;2.60;;;2.40;;
12222;SDS011;6174;49.058;8.524;2023-04-29T06:58:17;2.97;;;2.77;;
12222;SDS011;6174;49.058;8.524;2023-04-29T07:00:44;2.40;;;2.30;;
12222;SDS011;6174;49.058;8.524;2023-04-29T07:03:12;4.67;;;3.63;;
12222;SDS011;6174;49.058;8.524;2023-04-29T07:05:39;3.90;;;3.00;;
12222;SDS011;6174;49.058;8.524;2023-04-29T07:08:09;3.10;;;2.73;;
12222;SDS011;6174;49.058;8.524;2023-04-29T07:10:38;2.87;;;2.67;;
12222;SDS011;6174;49.058;8.524;2023-04-29T07:13:05;3.73;;;2.50;;
12222;SDS011;6174;49.058;8.524;2023-04-29T07:15:33;3.20;;;2.90;;
12222;SDS011;6174;49.058;8.524;2023-04-29T07:18:02;3.37;;;3.07;;
12222;SDS011;6174;49.058;8.524;2023-04-29T07:20:29;2.80;;;2.60;;
12222;SDS011;6174;49.058;8.524;2023-04-29T07:22:55;3.67;;;2.97;;
12222;SDS011;6174;49.058;8.524;2023-04-29T07:25:22;2.83;;;2.63;;
12222;SDS011;6174;49.058;8.524;2023-04-29T07:27:50;3.23;;;2.83;;
12222;SDS011;6174;49.058;8.524;2023-04-29T07:30:17;3.00;;;2.70;;
12222;SDS011;6174;49.058;8.524;2023-04-29T07:32:44;3.40;;;3.03;;
12222;SDS011;6174;49.058;8.524;2023-04-29T07:35:11;3.23;;;2.80;;
12222;SDS011;6174;49.058;8.524;2023-04-29T07:37:37;3.40;;;3.03;;
12222;SDS011;6174;49.058;8.524;2023-04-29T07:40:06;3.43;;;2.87;;
12222;SDS011;6174;49.058;8.524;2023-04-29T07:42:33;3.10;;;2.80;;
12222;SDS011;6174;49.058;8.524;2023-04-29T07:45:01;3.30;;;3.00;;
12222;SDS011;6174;49.058;8.524;2023-04-29T07:47:28;3.67;;;3.00;;
12222;SDS011;6174;49.058;8.524;2023-04-29T07:49:55;4.33;;;3.03;;
12222;SDS011;6174;49.058;8.524;2023-04-29T07:52:22;3.00;;;2.80;;
12222;SDS011;6174;49.058;8.524;2023-04-29T07:54:49;3.33;;;3.03;;
12222;SDS011;6174;49.058;8.524;2023-04-29T07:57:16;3.47;;;3.17;;
12222;SDS011;6174;49.058;8.524;2023-04-29T07:59:42;2.87;;;2.67;;
12222;SDS011;6174;49.058;8.524;2023-04-29T08:02:10;4.10;;;2.80;;
12222;SDS011;6174;49.058;8.524;2023-04-29T08:04:38;3.07;;;2.73;;
12222;SDS011;6174;49.058;8.524;2023-04-29T08:07:05;2.87;;;2.67;;
12222;SDS011;6174;49.058;8.524;2023-04-29T08:09:32;2.67;;;2.47;;
12222;SDS011;6174;49.058;8.524;2023-04-29T08:11:59;3.40;;;2.80;;
12222;SDS011;6174;49.058;8.524;2023-04-29T08:14:26;2.97;;;2.77;;
12222;SDS011;6174;49.058;8.524;2023-04-29T08:16:53;2.93;;;2.60;;
12222;SDS011;6174;49.058;8.524;2023-04-29T08:19:21;2.80;;;2.60;;
12222;SDS011;6174;49.058;8.524;2023-04-29T08:21:47;2.90;;;2.70;;
12222;SDS011;6174;49.058;8.524;2023-04-29T08:24:16;3.07;;;2.70;;
12222;SDS011;6174;49.058;8.524;2023-04-29T08:26:42;2.87;;;2.60;;
12222;SDS011;6174;49.058;8.524;2023-04-29T08:29:09;2.50;;;2.30;;
12222;SDS011;6174;49.058;8.524;2023-04-29T08:31:36;2.87;;;2.67;;
12222;SDS011;6174;49.058;8.524;2023-04-29T08:34:02;3.23;;;2.70;;
12222;SDS011;6174;49.058;8.524;2023-04-29T08:36:31;3.00;;;2.80;;
12222;SDS011;6174;49.058;8.524;2023-04-29T08:38:57;3.10;;;2.80;;
12222;SDS011;6174;49.058;8.524;2023-04-29T08:41:24;2.70;;;2.50;;
12222;SDS011;6174;49.058;8.524;2023-04-29T08:43:51;2.90;;;2.70;;
12222;SDS011;6174;49.058;8.524;2023-04-29T08:46:18;2.80;;;2.50;;
12222;SDS011;6174;49.058;8.524;2023-04-29T08:48:46;3.40;;;3.10;;
12222;SDS011;6174;49.058;8.524;2023-04-29T08:51:13;3.13;;;2.87;;
12222;SDS011;6174;49.058;8.524;2023-04-29T08:53:42;3.00;;;2.80;;
12222;SDS011;6174;49.058;8.524;2023-04-29T08:56:11;3.37;;;3.10;;
12222;SDS011;6174;49.058;8.524;2023-04-29T08:58:41;4.33;;;3.13;;
12222;SDS011;6174;49.058;8.524;2023-04-29T09:01:09;3.53;;;3.23;;
12222;SDS011;6174;49.058;8.524;2023-04-29T09:03:39;3.57;;;3.27;;
12222;SDS011;6174;49.058;8.524;2023-04-29T09:06:12;3.23;;;2.73;;
12222;SDS011;6174;49.058;8.524;2023-04-29T09:08:39;3.47;;;2.93;;
12222;SDS011;6174;49.058;8.524;2023-04-29T09:11:08;4.07;;;2.83;;
12222;SDS011;6174;49.058;8.524;2023-04-29T09:13:36;3.40;;;3.10;;
12222;SDS011;6174;49.058;8.524;2023-04-29T09:16:03;3.27;;;3.03;;
12222;SDS011;6174;49.058;8.524;2023-04-29T09:18:43;2.97;;;2.67;;
12222;SDS011;6174;49.058;8.524;2023-04-29T09:21:12;3.27;;;2.97;;
12222;SDS011;6174;49.058;8.524;2023-04-29T09:23:39;2.97;;;2.77;;
12222;SDS011;6174;49.058;8.524;2023-04-29T09:26:06;2.77;;;2.57;;
12222;SDS011;6174;49.058;8.524;2023-04-29T09:28:35;2.90;;;2.70;;
12222;SDS011;6174;49.058;8.524;2023-04-29T09:31:03;3.00;;;2.80;;
12222;SDS011;6174;49.058;8.524;2023-04-29T09:33:44;3.23;;;2.93;;
12222;SDS011;6174;49.058;8.524;2023-04-29T09:36:25;3.00;;;2.70;;
12222;SDS011;6174;49.058;8.524;2023-04-29T09:39:01;3.73;;;2.50;;
12222;SDS011;6174;49.058;8.524;2023-04-29T09:41:31;3.33;;;2.77;;
12222;SDS011;6174;49.058;8.524;2023-04-29T09:44:01;2.90;;;2.70;;
12222;SDS011;6174;49.058;8.524;2023-04-29T09:46:29;2.77;;;2.57;;
12222;SDS011;6174;49.058;8.524;2023-04-29T09:48:57;3.97;;;2.97;;
12222;SDS011;6174;49.058;8.524;2023-04-29T09:51:24;6.57;;;3.20;;
12222;SDS011;6174;49.058;8.524;2023-04-29T09:53:51;3.03;;;2.80;;
12222;SDS011;6174;49.058;8.524;2023-04-29T09:56:18;2.93;;;2.60;;
12222;SDS011;6174;49.058;8.524;2023-04-29T09:58:46;7.97;;;7.17;;
12222;SDS011;6174;49.058;8.524;2023-04-29T10:01:14;7.97;;;7.27;;
12222;SDS011;6174;49.058;8.524;2023-04-29T10:03:44;9.27;;;8.37;;
12222;SDS011;6174;49.058;8.524;2023-04-29T10:06:13;10.07;;;9.07;;
12222;SDS011;6174;49.058;8.524;2023-04-29T10:08:43;9.07;;;8.27;;
12222;SDS011;6174;49.058;8.524;2023-04-29T10:11:11;9.30;;;7.80;;
12222;SDS011;6174;49.058;8.524;2023-04-29T10:13:40;9.20;;;8.23;;
12222;SDS011;6174;49.058;8.524;2023-04-29T10:16:13;10.17;;;8.20;;
12222;SDS011;6174;49.058;8.524;2023-04-29T10:18:48;8.90;;;8.10;;
12222;SDS011;6174;49.058;8.524;2023-04-29T10:21:20;9.63;;;8.50;;
12222;SDS011;6174;49.058;8.524;2023-04-29T10:23:49;9.27;;;8.37;;
12222;SDS011;6174;49.058;8.524;2023-04-29T10:26:16;9.80;;;8.90;;
12222;SDS011;6174;49.058;8.524;2023-04-29T10:28:45;9.27;;;8.47;;
12222;SDS011;6174;49.058;8.524;2023-04-29T10:31:14;9.77;;;8.87;;
12222;SDS011;6174;49.058;8.524;2023-04-29T10:33:43;9.30;;;8.40;;
12222;SDS011;6174;49.058;8.524;2023-04-29T10:36:11;9.20;;;8.30;;
12222;SDS011;6174;49.058;8.524;2023-04-29T10:38:40;8.53;;;7.73;;
12222;SDS011;6174;49.058;8.524;2023-04-29T10:41:13;9.10;;;8.30;;
12222;SDS011;6174;49.058;8.524;2023-04-29T10:43:44;9.43;;;8.50;;
12222;SDS011;6174;49.058;8.524;2023-04-29T10:46:20;8.80;;;8.07;;
12222;SDS011;6174;49.058;8.524;2023-04-29T10:48:48;8.50;;;7.70;;
12222;SDS011;6174;49.058;8.524;2023-04-29T10:54:06;9.20;;;7.67;;
12222;SDS011;6174;49.058;8.524;2023-04-29T10:56:38;8.50;;;7.70;;
12222;SDS011;6174;49.058;8.524;2023-04-29T10:59:10;8.17;;;7.40;;
12222;SDS011;6174;49.058;8.524;2023-04-29T11:01:43;6.63;;;6.03;;
12222;SDS011;6174;49.058;8.524;2023-04-29T11:04:15;7.57;;;6.87;;
12222;SDS011;6174;49.058;8.524;2023-04-29T11:06:43;7.17;;;6.47;;
12222;SDS011;6174;49.058;8.524;2023-04-29T11:09:12;7.33;;;6.50;;
12222;SDS011;6174;49.058;8.524;2023-04-29T11:11:44;7.53;;;6.83;;
12222;SDS011;6174;49.058;8.524;2023-04-29T11:14:13;7.90;;;6.87;;
12222;SDS011;6174;49.058;8.524;2023-04-29T11:16:50;7.13;;;6.53;;
12222;SDS011;6174;49.058;8.524;2023-04-29T11:19:18;7.00;;;6.40;;
12222;SDS011;6174;49.058;8.524;2023-04-29T11:21:45;7.13;;;6.50;;
12222;SDS011;6174;49.058;8.524;2023-04-29T11:24:12;6.50;;;5.90;;
12222;SDS011;6174;49.058;8.524;2023-04-29T11:26:43;7.20;;;6.50;;
12222;SDS011;6174;49.058;8.524;2023-04-29T11:29:10;6.87;;;6.17;;
12222;SDS011;6174;49.058;8.524;2023-04-29T11:31:37;6.90;;;6.30;;
12222;SDS011;6174;49.058;8.524;2023-04-29T11:34:05;7.17;;;6.53;;
12222;SDS011;6174;49.058;8.524;2023-04-29T11:36:32;6.87;;;6.27;;
12222;SDS011;6174;49.058;8.524;2023-04-29T11:39:00;7.10;;;6.37;;
12222;SDS011;6174;49.058;8.524;2023-04-29T11:41:27;6.43;;;5.83;;
12222;SDS011;6174;49.058;8.524;2023-04-29T11:43:55;6.87;;;6.17;;
12222;SDS011;6174;49.058;8.524;2023-04-29T11:46:23;6.03;;;5.43;;
12222;SDS011;6174;49.058;8.524;2023-04-29T11:48:52;6.30;;;5.80;;
12222;SDS011;6174;49.058;8.524;2023-04-29T11:51:21;6.00;;;5.50;;
12222;SDS011;6174;49.058;8.524;2023-04-29T11:53:47;6.37;;;5.77;;
12222;SDS011;6174;49.058;8.524;2023-04-29T11:56:16;6.67;;;5.97;;
12222;SDS011;6174;49.058;8.524;2023-04-29T11:58:46;5.37;;;4.87;;
12222;SDS011;6174;49.058;8.524;2023-04-29T12:01:13;5.87;;;5.37;;
12222;SDS011;6174;49.058;8.524;2023-04-29T12:03:40;5.57;;;5.17;;
12222;SDS011;6174;49.058;8.524;2023-04-29T12:06:10;5.87;;;5.37;;
12222;SDS011;6174;49.058;8.524;2023-04-29T12:08:40;6.27;;;5.67;;
12222;SDS011;6174;49.058;8.524;2023-04-29T12:11:07;6.23;;;5.57;;
12222;SDS011;6174;49.058;8.524;2023-04-29T12:13:34;5.57;;;5.07;;
12222;SDS011;6174;49.058;8.524;2023-04-29T12:16:11;5.93;;;5.23;;
12222;SDS011;6174;49.058;8.524;2023-04-29T12:18:40;5.47;;;4.97;;
12222;SDS011;6174;49.058;8.524;2023-04-29T12:21:09;5.93;;;5.43;;
12222;SDS011;6174;49.058;8.524;2023-04-29T12:23:39;5.73;;;5.23;;
12222;SDS011;6174;49.058;8.524;2023-04-29T12:26:07;5.70;;;5.20;;
12222;SDS011;6174;49.058;8.524;2023-04-29T12:28:34;5.27;;;4.83;;
12222;SDS011;6174;49.058;8.524;2023-04-29T12:31:02;5.00;;;4.60;;
12222;SDS011;6174;49.058;8.524;2023-04-29T12:33:33;5.53;;;4.93;;
12222;SDS011;6174;49.058;8.524;2023-04-29T12:36:00;5.60;;;5.00;;
12222;SDS011;6174;49.058;8.524;2023-04-29T12:38:28;4.93;;;4.47;;
12222;SDS011;6174;49.058;8.524;2023-04-29T12:41:03;5.70;;;5.20;;
12222;SDS011;6174;49.058;8.524;2023-04-29T12:43:31;5.37;;;4.97;;
12222;SDS011;6174;49.058;8.524;2023-04-29T12:46:02;5.70;;;5.20;;
12222;SDS011;6174;49.058;8.524;2023-04-29T12:48:36;5.67;;;5.17;;
12222;SDS011;6174;49.058;8.524;2023-04-29T12:51:07;5.30;;;4.80;;
12222;SDS011;6174;49.058;8.524;2023-04-29T12:53:34;5.03;;;4.53;;
12222;SDS011;6174;49.058;8.524;2023-04-29T12:56:05;5.30;;;4.80;;
12222;SDS011;6174;49.058;8.524;2023-04-29T12:58:32;4.90;;;4.50;;
12222;SDS011;6174;49.058;8.524;2023-04-29T13:01:01;4.90;;;4.40;;
12222;SDS011;6174;49.058;8.524;2023-04-29T13:03:31;4.77;;;4.37;;
12222;SDS011;6174;49.058;8.524;2023-04-29T13:06:00;5.83;;;4.47;;
12222;SDS011;6174;49.058;8.524;2023-04-29T13:08:46;4.57;;;4.27;;
12222;SDS011;6174;49.058;8.524;2023-04-29T13:11:14;4.33;;;3.97;;
12222;SDS011;6174;49.058;8.524;2023-04-29T13:13:43;6.90;;;5.93;;
12222;SDS011;6174;49.058;8.524;2023-04-29T13:16:10;4.70;;;4.30;;
12222;SDS011;6174;49.058;8.524;2023-04-29T13:18:39;4.87;;;4.20;;
12222;SDS011;6174;49.058;8.524;2023-04-29T13:21:06;4.63;;;4.23;;
12222;SDS011;6174;49.058;8.524;2023-04-29T13:23:38;5.10;;;4.63;;
12222;SDS011;6174;49.058;8.524;2023-04-29T13:26:05;5.47;;;4.97;;
12222;SDS011;6174;49.058;8.524;2023-04-29T13:28:47;5.30;;;4.87;;
12222;SDS011;6174;49.058;8.524;2023-04-29T13:31:17;5.57;;;5.03;;
12222;SDS011;6174;49.058;8.524;2023-04-29T13:33:44;5.10;;;4.60;;
12222;SDS011;6174;49.058;8.524;2023-04-29T13:36:12;9.57;;;6.83;;
12222;SDS011;6174;49.058;8.524;2023-04-29T13:38:39;5.43;;;4.97;;
12222;SDS011;6174;49.058;8.524;2023-04-29T13:41:06;4.67;;;4.27;;
12222;SDS011;6174;49.058;8.524;2023-04-29T13:43:33;5.30;;;4.80;;
12222;SDS011;6174;49.058;8.524;2023-04-29T13:46:01;4.77;;;4.17;;
12222;SDS011;6174;49.058;8.524;2023-04-29T13:48:28;5.00;;;4.50;;
12222;SDS011;6174;49.058;8.524;2023-04-29T13:50:55;4.80;;;4.40;;
12222;SDS011;6174;49.058;8.524;2023-04-29T13:53:22;4.67;;;4.30;;
12222;SDS011;6174;49.058;8.524;2023-04-29T13:55:50;5.60;;;4.10;;
12222;SDS011;6174;49.058;8.524;2023-04-29T13:58:19;4.20;;;3.87;;
12222;SDS011;6174;49.058;8.524;2023-04-29T14:00:46;4.10;;;3.80;;
12222;SDS011;6174;49.058;8.524;2023-04-29T14:03:15;4.60;;;4.20;;
12222;SDS011;6174;49.058;8.524;2023-04-29T14:05:42;4.63;;;4.00;;
12222;SDS011;6174;49.058;8.524;2023-04-29T14:08:09;4.03;;;3.73;;
12222;SDS011;6174;49.058;8.524;2023-04-29T14:10:36;3.53;;;3.23;;
12222;SDS011;6174;49.058;8.524;2023-04-29T14:13:03;4.27;;;3.97;;
12222;SDS011;6174;49.058;8.524;2023-04-29T14:15:30;4.70;;;4.30;;
12222;SDS011;6174;49.058;8.524;2023-04-29T14:17:57;4.40;;;4.00;;
12222;SDS011;6174;49.058;8.524;2023-04-29T14:20:25;4.07;;;3.77;;
12222;SDS011;6174;49.058;8.524;2023-04-29T14:22:52;3.80;;;3.50;;
12222;SDS011;6174;49.058;8.524;2023-04-29T14:25:19;4.17;;;3.87;;
12222;SDS011;6174;49.058;8.524;2023-04-29T14:27:45;3.73;;;3.43;;
12222;SDS011;6174;49.058;8.524;2023-04-29T14:30:13;4.23;;;3.87;;
12222;SDS011;6174;49.058;8.524;2023-04-29T14:32:40;3.60;;;3.30;;
12222;SDS011;6174;49.058;8.524;2023-04-29T14:35:07;4.03;;;3.63;;
12222;SDS011;6174;49.058;8.524;2023-04-29T14:37:35;4.07;;;3.77;;
12222;SDS011;6174;49.058;8.524;2023-04-29T14:40:03;4.83;;;4.43;;
12222;SDS011;6174;49.058;8.524;2023-04-29T14:42:30;4.10;;;3.80;;
12222;SDS011;6174;49.058;8.524;2023-04-29T14:44:57;4.33;;;3.90;;
12222;SDS011;6174;49.058;8.524;2023-04-29T14:47:24;4.70;;;4.30;;
12222;SDS011;6174;49.058;8.524;2023-04-29T14:49:51;7.13;;;6.53;;
12222;SDS011;6174;49.058;8.524;2023-04-29T14:52:18;12.40;;;11.43;;
12222;SDS011;6174;49.058;8.524;2023-04-29T14:54:46;4.77;;;4.43;;
12222;SDS011;6174;49.058;8.524;2023-04-29T14:57:13;3.87;;;3.57;;
12222;SDS011;6174;49.058;8.524;2023-04-29T14:59:40;3.73;;;3.43;;
12222;SDS011;6174;49.058;8.524;2023-04-29T15:02:07;3.70;;;3.40;;
12222;SDS011;6174;49.058;8.524;2023-04-29T15:04:34;3.90;;;3.60;;
12222;SDS011;6174;49.058;8.524;2023-04-29T15:07:01;3.57;;;3.30;;
12222;SDS011;6174;49.058;8.524;2023-04-29T15:09:28;4.00;;;3.67;;
12222;SDS011;6174;49.058;8.524;2023-04-29T15:11:59;4.13;;;3.77;;
12222;SDS011;6174;49.058;8.524;2023-04-29T15:14:26;3.90;;;3.60;;
12222;SDS011;6174;49.058;8.524;2023-04-29T15:16:53;3.90;;;3.60;;
12222;SDS011;6174;49.058;8.524;2023-04-29T15:19:20;5.37;;;4.83;;
12222;SDS011;6174;49.058;8.524;2023-04-29T15:21:49;4.40;;;4.00;;
12222;SDS011;6174;49.058;8.524;2023-04-29T15:24:16;4.57;;;4.20;;
12222;SDS011;6174;49.058;8.524;2023-04-29T15:26:42;4.30;;;4.00;;
12222;SDS011;6174;49.058;8.524;2023-04-29T15:29:11;4.27;;;3.90;;
12222;SDS011;6174;49.058;8.524;2023-04-29T15:31:38;4.60;;;4.20;;
12222;SDS011;6174;49.058;8.524;2023-04-29T15:34:05;4.10;;;3.80;;
12222;SDS011;6174;49.058;8.524;2023-04-29T15:36:32;4.40;;;4.00;;
12222;SDS011;6174;49.058;8.524;2023-04-29T15:38:59;4.60;;;4.20;;
12222;SDS011;6174;49.058;8.524;2023-04-29T15:41:26;5.03;;;4.53;;
12222;SDS011;6174;49.058;8.524;2023-04-29T15:43:53;5.43;;;4.93;;
12222;SDS011;6174;49.058;8.524;2023-04-29T15:46:23;4.97;;;4.57;;
12222;SDS011;6174;49.058;8.524;2023-04-29T15:48:51;5.10;;;4.70;;
12222;SDS011;6174;49.058;8.524;2023-04-29T15:51:18;5.03;;;4.63;;
12222;SDS011;6174;49.058;8.524;2023-04-29T15:53:45;5.97;;;5.30;;
12222;SDS011;6174;49.058;8.524;2023-04-29T15:56:13;6.53;;;5.93;;
12222;SDS011;6174;49.058;8.524;2023-04-29T15:58:39;5.33;;;4.93;;
12222;SDS011;6174;49.058;8.524;2023-04-29T16:01:06;5.87;;;5.37;;
12222;SDS011;6174;49.058;8.524;2023-04-29T16:03:34;5.87;;;5.37;;
12222;SDS011;6174;49.058;8.524;2023-04-29T16:06:01;5.30;;;4.67;;
12222;SDS011;6174;49.058;8.524;2023-04-29T16:08:29;4.60;;;4.20;;
12222;SDS011;6174;49.058;8.524;2023-04-29T16:10:55;4.90;;;4.37;;
12222;SDS011;6174;49.058;8.524;2023-04-29T16:13:22;5.00;;;4.50;;
12222;SDS011;6174;49.058;8.524;2023-04-29T16:15:49;4.70;;;4.30;;
12222;SDS011;6174;49.058;8.524;2023-04-29T16:18:16;5.33;;;4.93;;
12222;SDS011;6174;49.058;8.524;2023-04-29T16:20:44;4.73;;;4.33;;
12222;SDS011;6174;49.058;8.524;2023-04-29T16:23:11;4.80;;;4.40;;
12222;SDS011;6174;49.058;8.524;2023-04-29T16:25:38;9.43;;;8.50;;
12222;SDS011;6174;49.058;8.524;2023-04-29T16:28:06;4.23;;;3.90;;
12222;SDS011;6174;49.058;8.524;2023-04-29T16:30:33;4.80;;;4.40;;
12222;SDS011;6174;49.058;8.524;2023-04-29T16:33:00;4.10;;;3.80;;
12222;SDS011;6174;49.058;8.524;2023-04-29T16:35:27;4.77;;;3.77;;
12222;SDS011;6174;49.058;8.524;2023-04-29T16:37:56;3.90;;;3.60;;
12222;SDS011;6174;49.058;8.524;2023-04-29T16:40:23;4.00;;;3.70;;
12222;SDS011;6174;49.058;8.524;2023-04-29T16:42:49;3.83;;;3.53;;
12222;SDS011;6174;49.058;8.524;2023-04-29T16:45:17;4.10;;;3.70;;
12222;SDS011;6174;49.058;8.524;2023-04-29T16:47:44;4.10;;;3.73;;
12222;SDS011;6174;49.058;8.524;2023-04-29T16:50:11;3.70;;;3.40;;
12222;SDS011;6174;49.058;8.524;2023-04-29T16:52:38;3.80;;;3.20;;
12222;SDS011;6174;49.058;8.524;2023-04-29T16:55:07;3.80;;;3.50;;
12222;SDS011;6174;49.058;8.524;2023-04-29T16:57:36;3.40;;;3.10;;
12222;SDS011;6174;49.058;8.524;2023-04-29T17:00:03;3.40;;;3.10;;
12222;SDS011;6174;49.058;8.524;2023-04-29T17:02:32;3.57;;;3.27;;
12222;SDS011;6174;49.058;8.524;2023-04-29T17:04:59;3.60;;;3.30;;
12222;SDS011;6174;49.058;8.524;2023-04-29T17:07:26;3.23;;;3.03;;
12222;SDS011;6174;49.058;8.524;2023-04-29T17:09:54;3.77;;;3.47;;
12222;SDS011;6174;49.058;8.524;2023-04-29T17:12:22;3.67;;;3.37;;
12222;SDS011;6174;49.058;8.524;2023-04-29T17:14:49;3.70;;;3.40;;
12222;SDS011;6174;49.058;8.524;2023-04-29T17:17:16;3.77;;;3.33;;
12222;SDS011;6174;49.058;8.524;2023-04-29T17:19:43;3.90;;;3.60;;
12222;SDS011;6174;49.058;8.524;2023-04-29T17:22:13;3.70;;;3.40;;
12222;SDS011;6174;49.058;8.524;2023-04-29T17:24:41;3.73;;;3.43;;
12222;SDS011;6174;49.058;8.524;2023-04-29T17:27:08;3.50;;;3.20;;
12222;SDS011;6174;49.058;8.524;2023-04-29T17:29:37;3.77;;;3.47;;
12222;SDS011;6174;49.058;8.524;2023-04-29T17:32:04;3.70;;;3.40;;
12222;SDS011;6174;49.058;8.524;2023-04-29T17:34:35;3.80;;;3.50;;
12222;SDS011;6174;49.058;8.524;2023-04-29T17:37:02;4.30;;;3.90;;
12222;SDS011;6174;49.058;8.524;2023-04-29T17:39:30;3.60;;;3.30;;
12222;SDS011;6174;49.058;8.524;2023-04-29T17:41:56;4.00;;;3.70;;
12222;SDS011;6174;49.058;8.524;2023-04-29T17:44:23;4.17;;;3.87;;
12222;SDS011;6174;49.058;8.524;2023-04-29T17:46:52;4.30;;;4.00;;
12222;SDS011;6174;49.058;8.524;2023-04-29T17:49:18;4.10;;;3.70;;
12222;SDS011;6174;49.058;8.524;2023-04-29T17:51:45;4.37;;;4.07;;
12222;SDS011;6174;49.058;8.524;2023-04-29T17:54:12;4.63;;;4.23;;
12222;SDS011;6174;49.058;8.524;2023-04-29T17:56:39;4.17;;;3.83;;
12222;SDS011;6174;49.058;8.524;2023-04-29T17:59:05;4.30;;;3.90;;
12222;SDS011;6174;49.058;8.524;2023-04-29T18:01:33;3.80;;;3.50;;
12222;SDS011;6174;49.058;8.524;2023-04-29T18:04:02;3.90;;;3.60;;
12222;SDS011;6174;49.058;8.524;2023-04-29T18:06:29;4.23;;;3.83;;
12222;SDS011;6174;49.058;8.524;2023-04-29T18:08:56;4.23;;;3.87;;
12222;SDS011;6174;49.058;8.524;2023-04-29T18:11:23;3.90;;;3.60;;
12222;SDS011;6174;49.058;8.524;2023-04-29T18:13:51;4.50;;;4.10;;
12222;SDS011;6174;49.058;8.524;2023-04-29T18:16:18;3.83;;;3.53;;
12222;SDS011;6174;49.058;8.524;2023-04-29T18:18:45;3.87;;;3.57;;
12222;SDS011;6174;49.058;8.524;2023-04-29T18:21:13;4.23;;;3.27;;
12222;SDS011;6174;49.058;8.524;2023-04-29T18:23:46;3.77;;;3.47;;
12222;SDS011;6174;49.058;8.524;2023-04-29T18:26:12;4.20;;;3.90;;
12222;SDS011;6174;49.058;8.524;2023-04-29T18:28:39;4.70;;;4.27;;
12222;SDS011;6174;49.058;8.524;2023-04-29T18:31:06;4.07;;;3.77;;
12222;SDS011;6174;49.058;8.524;2023-04-29T18:33:33;4.03;;;3.73;;
12222;SDS011;6174;49.058;8.524;2023-04-29T18:36:00;4.13;;;3.80;;
12222;SDS011;6174;49.058;8.524;2023-04-29T18:38:29;4.20;;;3.90;;
12222;SDS011;6174;49.058;8.524;2023-04-29T18:40:55;4.60;;;4.30;;
12222;SDS011;6174;49.058;8.524;2023-04-29T18:43:22;4.50;;;4.20;;
12222;SDS011;6174;49.058;8.524;2023-04-29T18:45:52;4.57;;;4.17;;
12222;SDS011;6174;49.058;8.524;2023-04-29T18:48:19;4.50;;;4.20;;
12222;SDS011;6174;49.058;8.524;2023-04-29T18:50:46;4.80;;;4.40;;
12222;SDS011;6174;49.058;8.524;2023-04-29T18:53:12;5.30;;;4.90;;
12222;SDS011;6174;49.058;8.524;2023-04-29T18:55:40;5.33;;;4.57;;
12222;SDS011;6174;49.058;8.524;2023-04-29T18:58:08;5.23;;;4.73;;
12222;SDS011;6174;49.058;8.524;2023-04-29T19:00:35;4.60;;;4.20;;
12222;SDS011;6174;49.058;8.524;2023-04-29T19:03:02;5.17;;;4.60;;
12222;SDS011;6174;49.058;8.524;2023-04-29T19:05:29;5.70;;;5.20;;
12222;SDS011;6174;49.058;8.524;2023-04-29T19:07:56;5.30;;;4.90;;
12222;SDS011;6174;49.058;8.524;2023-04-29T19:10:22;5.00;;;4.57;;
12222;SDS011;6174;49.058;8.524;2023-04-29T19:12:51;5.10;;;4.70;;
12222;SDS011;6174;49.058;8.524;2023-04-29T19:15:18;5.40;;;5.00;;
12222;SDS011;6174;49.058;8.524;2023-04-29T19:17:44;5.73;;;5.17;;
12222;SDS011;6174;49.058;8.524;2023-04-29T19:20:11;5.20;;;4.80;;
12222;SDS011;6174;49.058;8.524;2023-04-29T19:22:38;5.20;;;4.70;;
12222;SDS011;6174;49.058;8.524;2023-04-29T19:25:05;5.30;;;4.90;;
12222;SDS011;6174;49.058;8.524;2023-04-29T19:27:32;5.57;;;5.17;;
12222;SDS011;6174;49.058;8.524;2023-04-29T19:30:00;5.93;;;5.30;;
12222;SDS011;6174;49.058;8.524;2023-04-29T19:32:27;5.23;;;4.73;;
12222;SDS011;6174;49.058;8.524;2023-04-29T19:34:54;5.40;;;4.70;;
12222;SDS011;6174;49.058;8.524;2023-04-29T19:37:21;5.07;;;4.67;;
12222;SDS011;6174;49.058;8.524;2023-04-29T19:39:47;5.70;;;5.20;;
12222;SDS011;6174;49.058;8.524;2023-04-29T19:42:14;5.33;;;4.93;;
12222;SDS011;6174;49.058;8.524;2023-04-29T19:44:41;6.27;;;5.77;;
12222;SDS011;6174;49.058;8.524;2023-04-29T19:47:10;5.47;;;4.97;;
12222;SDS011;6174;49.058;8.524;2023-04-29T19:49:36;5.90;;;5.40;;
12222;SDS011;6174;49.058;8.524;2023-04-29T19:52:03;5.60;;;5.10;;
12222;SDS011;6174;49.058;8.524;2023-04-29T19:54:30;5.60;;;5.10;;
12222;SDS011;6174;49.058;8.524;2023-04-29T19:56:58;5.57;;;5.10;;
12222;SDS011;6174;49.058;8.524;2023-04-29T19:59:26;6.03;;;5.53;;
12222;SDS011;6174;49.058;8.524;2023-04-29T20:01:53;5.83;;;5.43;;
12222;SDS011;6174;49.058;8.524;2023-04-29T20:04:21;6.57;;;5.97;;
12222;SDS011;6174;49.058;8.524;2023-04-29T20:06:48;6.00;;;5.50;;
12222;SDS011;6174;49.058;8.524;2023-04-29T20:09:15;6.77;;;6.17;;
12222;SDS011;6174;49.058;8.524;2023-04-29T20:11:42;6.70;;;6.00;;
12222;SDS011;6174;49.058;8.524;2023-04-29T20:14:09;6.47;;;5.97;;
12222;SDS011;6174;49.058;8.524;2023-04-29T20:16:36;7.00;;;6.40;;
12222;SDS011;6174;49.058;8.524;2023-04-29T20:19:02;6.97;;;6.37;;
12222;SDS011;6174;49.058;8.524;2023-04-29T20:21:30;6.70;;;6.20;;
12222;SDS011;6174;49.058;8.524;2023-04-29T20:23:57;7.00;;;6.50;;
12222;SDS011;6174;49.058;8.524;2023-04-29T20:26:24;7.10;;;6.50;;
12222;SDS011;6174;49.058;8.524;2023-04-29T20:28:52;7.03;;;6.33;;
12222;SDS011;6174;49.058;8.524;2023-04-29T20:31:18;6.70;;;6.17;;
12222;SDS011;6174;49.058;8.524;2023-04-29T20:33:45;7.77;;;6.93;;
12222;SDS011;6174;49.058;8.524;2023-04-29T20:36:12;8.23;;;7.53;;
12222;SDS011;6174;49.058;8.524;2023-04-29T20:38:40;7.83;;;7.13;;
12222;SDS011;6174;49.058;8.524;2023-04-29T20:41:07;8.60;;;7.90;;
12222;SDS011;6174;49.058;8.524;2023-04-29T20:43:34;8.50;;;7.80;;
12222;SDS011;6174;49.058;8.524;2023-04-29T20:46:01;8.63;;;7.93;;
12222;SDS011;6174;49.058;8.524;2023-04-29T20:48:28;8.90;;;8.10;;
12222;SDS011;6174;49.058;8.524;2023-04-29T20:50:55;8.87;;;8.03;;
12222;SDS011;6174;49.058;8.524;2023-04-29T20:53:22;8.33;;;7.63;;
12222;SDS011;6174;49.058;8.524;2023-04-29T20:55:51;8.33;;;7.57;;
12222;SDS011;6174;49.058;8.524;2023-04-29T20:58:17;8.73;;;7.93;;
12222;SDS011;6174;49.058;8.524;2023-04-29T21:00:44;8.53;;;7.83;;
12222;SDS011;6174;49.058;8.524;2023-04-29T21:03:11;9.07;;;8.23;;
12222;SDS011;6174;49.058;8.524;2023-04-29T21:05:38;9.10;;;8.30;;
12222;SDS011;6174;49.058;8.524;2023-04-29T21:08:04;7.90;;;7.30;;